Time;durP1;ratioP1;P1;durP2;ratioP2;P2;SDS_P1;SDS_P2;PMS_P1;PMS_P2;Temp;Humidity;BMP_temperature;BMP_pressure;BME280_temperature;BME280_humidity;BME280_pressure;Samples;Min_cycle;Max_cycle;Signal;HPM_P1;HPM_P2
2022/12/01 00:00:58;;;;;;;;;47.00;37.00;;;;;4.09;85.07;101350.91;5022527;28;45518;-92
2022/12/01 00:03:24;;;;;;;;;49.75;38.50;;;;;5.63;85.86;101627.88;5025812;28;45420;-94
2022/12/01 00:06:05;;;;;;;;;41.75;33.00;;;;;4.91;86.15;101521.75;5032346;28;46395;-93
2022/12/01 00:08:32;;;;;;;;;48.50;38.00;;;;;6.03;86.10;101704.66;5038921;28;44902;-93
2022/12/01 00:11:11;;;;;;;;;52.00;41.00;;;;;6.03;86.51;101685.44;5033140;28;44692;-93
2022/12/01 00:13:39;;;;;;;;;45.00;39.75;;;;;4.95;86.35;101489.47;5029616;28;45463;-95
2022/12/01 00:16:13;;;;;;;;;44.50;37.75;;;;;4.51;85.92;101416.22;4996375;28;47321;-94
2022/12/01 00:18:39;;;;;;;;;45.75;37.25;;;;;4.97;86.04;101511.38;5028734;28;45427;-94
2022/12/01 00:21:05;;;;;;;;;51.75;40.00;;;;;5.19;85.92;101537.94;5026337;28;45366;-94
2022/12/01 00:23:31;;;;;;;;;47.50;38.75;;;;;5.06;86.00;101516.78;5026589;28;45276;-94
2022/12/01 00:26:04;;;;;;;;;49.25;37.00;;;;;4.30;86.42;101380.06;5026572;28;46079;-94
2022/12/01 00:28:30;;;;;;;;;50.75;39.25;;;;;5.35;85.28;101553.09;5023706;28;45314;-93
2022/12/01 00:30:58;;;;;;;;;51.50;42.25;;;;;4.35;86.31;101389.78;5028630;28;45314;-94
2022/12/01 00:33:26;;;;;;;;;41.50;33.25;;;;;5.46;86.19;101563.75;5032014;28;45289;-94
2022/12/01 00:36:05;;;;;;;;;54.00;39.25;;;;;5.37;86.07;101580.22;5017983;28;47626;-93
2022/12/01 00:38:32;;;;;;;;;51.00;41.50;;;;;5.02;85.78;101500.97;5017991;28;45619;-92
2022/12/01 00:41:02;;;;;;;;;54.50;39.75;;;;;6.09;85.50;101693.41;5027226;28;45367;-93
2022/12/01 00:43:32;;;;;;;;;48.50;37.25;;;;;6.06;85.50;101698.59;5029685;28;45284;-93
2022/12/01 00:45:58;;;;;;;;;43.25;37.75;;;;;4.50;85.07;101419.72;5022100;28;46647;-90
2022/12/01 00:48:23;;;;;;;;;51.50;37.00;;;;;5.57;85.63;101619.88;5006139;28;45373;-92
2022/12/01 00:50:51;;;;;;;;;51.00;39.50;;;;;4.84;85.06;101504.13;5034350;28;44737;-89
2022/12/01 00:53:16;;;;;;;;;48.50;38.25;;;;;5.72;85.65;101676.97;5028099;28;45495;-89
2022/12/01 00:55:42;;;;;;;;;47.75;39.25;;;;;5.05;85.64;101583.13;5025336;28;48086;-90
2022/12/01 00:58:11;;;;;;;;;46.00;35.75;;;;;5.28;85.49;101603.66;5003438;28;45610;-91
2022/12/01 01:00:39;;;;;;;;;42.75;37.75;;;;;5.12;85.18;101579.78;5020710;28;45419;-90
2022/12/01 01:03:08;;;;;;;;;52.75;42.25;;;;;5.26;85.52;101613.22;5025883;28;45200;-90
2022/12/01 01:05:41;;;;;;;;;49.75;39.50;;;;;4.25;85.34;101445.41;5027764;28;47229;-90
2022/12/01 01:08:13;;;;;;;;;60.75;43.50;;;;;4.39;85.49;101475.38;5024077;28;45276;-89
2022/12/01 01:10:40;;;;;;;;;46.75;40.50;;;;;4.27;85.42;101457.69;5021661;28;45464;-91
2022/12/01 01:13:05;;;;;;;;;52.25;38.50;;;;;5.20;85.75;101641.94;5019191;28;45349;-90
2022/12/01 01:15:34;;;;;;;;;41.50;35.75;;;;;3.72;85.47;101383.31;5022207;28;47457;-91
2022/12/01 01:18:01;;;;;;;;;50.00;37.25;;;;;5.42;85.93;101687.78;5037826;28;45351;-93
2022/12/01 01:20:31;;;;;;;;;48.50;39.50;;;;;5.37;86.03;101692.94;5036621;28;45244;-93
2022/12/01 01:23:00;;;;;;;;;45.50;39.25;;;;;3.64;85.57;101392.72;5041665;28;44945;-94
2022/12/01 01:25:27;;;;;;;;;48.00;37.25;;;;;4.21;85.92;101502.06;5032969;28;45335;-94
2022/12/01 01:27:58;;;;;;;;;57.75;40.75;;;;;4.91;85.14;101616.06;5033059;28;45307;-94
2022/12/01 01:30:24;;;;;;;;;38.75;34.75;;;;;5.16;85.78;101675.06;5033855;28;45308;-92
2022/12/01 01:32:50;;;;;;;;;40.75;35.50;;;;;4.54;85.75;101584.78;5032473;28;44875;-93
2022/12/01 01:35:19;;;;;;;;;47.50;39.25;;;;;4.52;85.96;101577.72;5032848;28;46588;-93
2022/12/01 01:37:48;;;;;;;;;47.75;40.25;;;;;4.55;86.00;101593.50;5032373;28;45245;-93
2022/12/01 01:40:14;;;;;;;;;38.50;29.25;;;;;4.55;85.23;101617.06;5032360;28;45438;-92
2022/12/01 01:42:44;;;;;;;;;49.50;38.75;;;;;3.60;85.72;101443.16;5033961;28;45256;-93
2022/12/01 01:45:23;;;;;;;;;48.50;41.25;;;;;4.23;85.72;101554.44;5037708;28;45170;-92
2022/12/01 01:50:41;;;;;;;;;39.00;32.50;;;;;5.15;86.09;101721.38;5055280;28;44758;-93
2022/12/01 01:53:11;;;;;;;;;51.75;39.75;;;;;3.33;85.51;101395.53;5060339;28;44842;-92
2022/12/01 01:55:41;;;;;;;;;47.25;33.50;;;;;3.65;85.06;101458.13;5057560;28;47279;-92
2022/12/01 01:58:09;;;;;;;;;47.75;39.50;;;;;3.38;85.61;101417.41;5057519;28;44680;-93
2022/12/01 02:00:45;;;;;;;;;49.75;38.25;;;;;4.77;85.52;101629.75;5053427;28;45349;-92
2022/12/01 02:09:42;;;;;;;;;51.25;30.25;;;;;5.29;85.39;101719.03;5052174;28;45359;-94
2022/12/01 02:12:27;;;;;;;;;49.25;37.25;;;;;5.30;85.73;101702.44;5025013;28;45318;-94
2022/12/01 02:14:58;;;;;;;;;56.75;41.50;;;;;5.32;85.47;101692.88;5046714;28;45399;-93
2022/12/01 02:18:09;;;;;;;;;43.00;38.00;;;;;3.61;85.57;101422.28;5052951;28;46747;-93
2022/12/01 02:20:36;;;;;;;;;42.50;39.25;;;;;5.36;85.40;101699.06;4970896;28;46088;-93
2022/12/01 02:23:36;;;;;;;;;38.75;33.75;;;;;5.38;85.40;101697.34;4988489;28;45255;-94
2022/12/01 02:26:38;;;;;;;;;56.00;39.25;;;;;5.42;85.60;101688.69;4978871;28;44863;-93
2022/12/01 02:29:28;;;;;;;;;44.25;35.75;;;;;5.46;85.25;101701.00;4986844;28;47398;-93
2022/12/01 02:32:08;;;;;;;;;50.25;37.50;;;;;3.63;85.37;101373.53;4968917;28;45351;-93
2022/12/01 02:34:55;;;;;;;;;49.25;39.00;;;;;5.49;84.91;101689.69;4985886;28;45449;-93
2022/12/01 02:37:42;;;;;;;;;47.00;38.75;;;;;5.31;85.10;101650.88;4985634;28;45433;-94
2022/12/01 02:40:36;;;;;;;;;42.25;33.25;;;;;3.64;84.38;101377.91;4989781;28;46442;-93
2022/12/01 02:43:18;;;;;;;;;42.75;35.25;;;;;4.49;84.57;101517.44;4999416;28;44986;-93
2022/12/01 02:46:02;;;;;;;;;47.25;38.25;;;;;5.59;84.91;101685.50;4975552;28;45290;-93
2022/12/01 02:48:38;;;;;;;;;46.00;36.25;;;;;5.08;85.15;101614.63;4974184;28;45392;-95
2022/12/01 02:51:14;;;;;;;;;47.25;34.75;;;;;3.74;84.84;101385.09;4993020;28;47287;-93
2022/12/01 02:53:40;;;;;;;;;56.25;41.75;;;;;4.83;85.37;101565.22;5032231;28;45397;-92
2022/12/01 02:56:10;;;;;;;;;40.00;36.75;;;;;3.91;85.29;101402.88;5029365;28;45420;-93
2022/12/01 02:58:41;;;;;;;;;46.75;37.75;;;;;5.19;85.34;101632.31;5013639;28;45221;-92
2022/12/01 03:01:41;;;;;;;;;48.75;34.50;;;;;5.21;85.46;101609.63;5029119;28;47229;-93
2022/12/01 03:04:33;;;;;;;;;43.50;38.25;;;;;4.54;85.04;101516.69;5031153;28;45169;-93
2022/12/01 03:07:18;;;;;;;;;41.75;26.75;;;;;5.64;84.71;101684.72;5036781;28;45265;-92
2022/12/01 03:09:58;;;;;;;;;42.50;34.50;;;;;5.63;84.88;101676.81;5031619;28;45283;-92
2022/12/01 03:12:59;;;;;;;;;41.25;36.00;;;;;5.01;84.25;101596.16;5022908;28;46424;-93
2022/12/01 03:15:54;;;;;;;;;45.25;36.75;;;;;5.60;85.16;101682.00;5022401;28;45284;-93
2022/12/01 03:18:39;;;;;;;;;44.50;33.00;;;;;5.57;84.96;101676.72;5029817;28;45198;-93
2022/12/01 03:21:14;;;;;;;;;44.25;37.00;;;;;5.55;84.44;101673.19;5027860;28;45268;-93
2022/12/01 03:23:46;;;;;;;;;45.00;37.00;;;;;3.55;84.14;101349.84;5027236;28;45325;-93
2022/12/01 03:26:19;;;;;;;;;40.00;35.00;;;;;3.47;84.53;101347.91;5024647;28;45472;-93
2022/12/01 03:29:10;;;;;;;;;53.00;40.00;;;;;5.47;85.21;101671.31;5026706;28;44827;-93
2022/12/01 03:31:41;;;;;;;;;41.75;35.00;;;;;5.45;85.28;101687.84;5033900;28;44927;-94
2022/12/01 03:34:15;;;;;;;;;52.50;37.75;;;;;4.26;84.71;101491.66;5035466;28;46696;-93
2022/12/01 03:36:50;;;;;;;;;48.00;37.25;;;;;4.62;84.93;101543.03;5028824;28;44753;-93
2022/12/01 03:39:21;;;;;;;;;40.75;29.75;;;;;4.54;85.24;101537.63;5029269;28;45421;-93
2022/12/01 03:45:27;;;;;;;;;37.25;31.75;;;;;4.86;85.58;101588.88;5032693;28;44910;-92
2022/12/01 03:47:54;;;;;;;;;49.25;37.25;;;;;4.20;85.36;101483.69;5048161;28;45241;-93
2022/12/01 03:50:29;;;;;;;;;43.75;35.50;;;;;5.41;85.04;101697.41;5051983;28;45220;-93
2022/12/01 03:53:18;;;;;;;;;40.50;38.00;;;;;4.22;84.77;101495.06;5058125;28;44946;-93
2022/12/01 03:55:51;;;;;;;;;51.50;40.00;;;;;4.75;85.21;101586.94;5052332;28;46232;-93
2022/12/01 03:58:22;;;;;;;;;53.25;43.00;;;;;3.59;85.49;101383.91;5048244;28;45229;-94
2022/12/01 04:04:12;;;;;;;;;47.50;33.50;;;;;3.21;84.78;101309.03;5065181;28;45240;-93
2022/12/01 04:06:41;;;;;;;;;49.75;39.50;;;;;4.16;85.28;101476.63;5060326;28;45154;-90
2022/12/01 04:09:09;;;;;;;;;45.75;37.50;;;;;5.40;84.97;101695.63;5050781;28;45374;-91
2022/12/01 04:14:19;;;;;;;;;49.25;39.00;;;;;4.17;85.72;101478.41;5039314;28;45445;-90
2022/12/01 04:16:44;;;;;;;;;36.50;28.50;;;;;5.25;85.26;101643.78;5028091;28;47962;-90
2022/12/01 04:19:10;;;;;;;;;39.50;34.50;;;;;5.43;85.35;101673.84;5042642;28;45409;-90
2022/12/01 04:21:36;;;;;;;;;39.75;34.75;;;;;4.40;84.99;101487.63;5028160;28;45389;-90
2022/12/01 04:24:02;;;;;;;;;26.00;20.00;;;;;4.36;84.79;101501.47;5028477;28;45383;-90
2022/12/01 04:26:32;;;;;;;;;47.00;41.00;;;;;3.99;85.31;101419.59;5029225;28;46928;-89
2022/12/01 04:29:03;;;;;;;;;45.25;39.25;;;;;3.65;85.32;101363.13;5033302;28;45360;-91
2022/12/01 04:31:29;;;;;;;;;41.75;34.25;;;;;3.30;84.54;101305.75;5048986;28;45632;-90
2022/12/01 04:33:55;;;;;;;;;45.75;33.50;;;;;4.59;85.21;101550.81;5029090;28;45293;-89
2022/12/01 04:36:21;;;;;;;;;52.50;38.75;;;;;4.71;84.95;101558.91;5029574;28;47965;-91
2022/12/01 04:38:48;;;;;;;;;49.00;39.00;;;;;5.02;85.30;101614.53;5023845;28;45415;-89
2022/12/01 04:41:14;;;;;;;;;44.00;39.25;;;;;5.19;85.47;101643.66;5027217;28;45375;-89
2022/12/01 04:43:40;;;;;;;;;56.00;38.00;;;;;4.23;84.89;101494.22;5027466;28;45491;-89
2022/12/01 04:46:06;;;;;;;;;46.75;37.75;;;;;4.50;85.52;101520.09;5039162;28;47281;-89
2022/12/01 04:48:34;;;;;;;;;42.75;34.75;;;;;4.24;85.25;101490.78;5043992;28;45285;-89
2022/12/01 04:51:02;;;;;;;;;41.75;35.75;;;;;4.25;85.72;101492.50;5041716;28;45275;-90
2022/12/01 04:53:28;;;;;;;;;40.75;34.75;;;;;4.19;84.81;101487.16;5043634;28;45384;-90
2022/12/01 04:55:53;;;;;;;;;47.50;38.25;;;;;3.73;84.85;101421.66;5024542;28;47153;-91
2022/12/01 04:58:19;;;;;;;;;44.75;39.25;;;;;5.33;85.16;101685.91;5008319;28;45454;-90
2022/12/01 05:00:47;;;;;;;;;51.25;38.75;;;;;4.31;85.03;101516.19;5003157;28;45511;-90
2022/12/01 05:03:20;;;;;;;;;52.50;39.00;;;;;4.14;84.79;101475.72;5009078;28;45534;-90
2022/12/01 05:05:46;;;;;;;;;41.50;35.50;;;;;4.60;84.64;101555.19;5020327;28;48573;-90
2022/12/01 05:08:17;;;;;;;;;46.25;35.25;;;;;5.30;85.09;101676.22;5025998;28;45429;-90
2022/12/01 05:10:43;;;;;;;;;48.75;35.00;;;;;4.08;84.91;101474.75;5041060;28;45273;-91
2022/12/01 05:13:08;;;;;;;;;48.50;38.75;;;;;4.72;85.00;101589.50;5041337;28;45536;-90
2022/12/01 05:15:36;;;;;;;;;52.25;40.75;;;;;3.71;84.58;101413.78;5040322;28;45361;-90
2022/12/01 05:18:02;;;;;;;;;46.25;37.50;;;;;4.61;84.79;101570.06;5044749;28;45292;-90
2022/12/01 05:23:14;;;;;;;;;48.50;31.50;;;;;5.18;84.41;101688.19;5041016;28;45466;-91
2022/12/01 05:25:41;;;;;;;;;56.25;42.00;;;;;5.07;84.56;101664.41;5037939;28;46855;-91
2022/12/01 05:28:08;;;;;;;;;48.25;38.75;;;;;3.59;84.99;101418.75;5039149;28;45410;-90
2022/12/01 05:30:33;;;;;;;;;50.50;40.75;;;;;4.05;84.71;101498.25;5043165;28;45405;-91
2022/12/01 05:32:59;;;;;;;;;50.50;39.00;;;;;4.95;85.16;101659.78;5042577;28;45289;-91
2022/12/01 05:35:25;;;;;;;;;49.00;39.25;;;;;4.34;85.01;101560.78;5046921;28;45983;-90
2022/12/01 05:37:50;;;;;;;;;43.75;36.25;;;;;5.00;84.97;101667.78;5044937;28;45348;-89
2022/12/01 05:40:16;;;;;;;;;48.25;39.50;;;;;4.63;85.25;101625.94;5033647;28;45409;-90
2022/12/01 05:42:41;;;;;;;;;51.25;40.00;;;;;5.03;85.23;101681.81;5036352;28;45362;-90
2022/12/01 05:45:07;;;;;;;;;38.50;34.25;;;;;5.04;85.33;101686.22;5036893;28;46867;-91
2022/12/01 05:47:33;;;;;;;;;39.75;37.25;;;;;4.53;85.29;101597.81;5026103;28;45515;-91
2022/12/01 05:49:58;;;;;;;;;55.50;40.00;;;;;3.38;84.75;101404.34;5024936;28;45423;-89
2022/12/01 05:52:23;;;;;;;;;31.50;26.50;;;;;3.38;85.07;101406.09;5021379;28;45411;-92
2022/12/01 05:54:49;;;;;;;;;40.75;33.50;;;;;5.04;85.20;101687.94;5024121;28;46215;-92
2022/12/01 05:57:14;;;;;;;;;45.00;35.75;;;;;4.40;84.07;101588.81;5024350;28;45357;-90
2022/12/01 05:59:40;;;;;;;;;49.25;39.50;;;;;4.59;84.88;101619.78;5027055;28;45789;-92
2022/12/01 06:02:08;;;;;;;;;47.50;35.50;;;;;3.07;85.03;101352.22;5029765;28;45513;-91
2022/12/01 06:04:34;;;;;;;;;52.25;38.75;;;;;4.58;84.65;101614.50;5052074;28;45493;-91
2022/12/01 06:07:00;;;;;;;;;52.25;37.00;;;;;4.64;84.98;101643.44;5044228;28;45383;-89
2022/12/01 06:09:26;;;;;;;;;59.75;40.00;;;;;3.43;84.30;101419.25;5022184;28;45421;-90
2022/12/01 06:11:51;;;;;;;;;54.50;40.25;;;;;4.96;84.87;101690.41;5021291;28;45466;-91
2022/12/01 06:14:17;;;;;;;;;48.25;40.75;;;;;4.55;85.46;101617.94;5020608;28;46902;-92
2022/12/01 06:16:42;;;;;;;;;53.00;39.75;;;;;3.80;84.53;101493.31;5021095;28;45481;-90
2022/12/01 06:19:08;;;;;;;;;38.75;37.25;;;;;4.32;84.69;101588.66;5027146;28;45376;-92
2022/12/01 06:21:46;;;;;;;;;33.00;28.50;;;;;4.31;85.28;101591.22;5029047;28;45252;-94
2022/12/01 06:24:12;;;;;;;;;39.00;35.50;;;;;4.45;84.75;101595.94;5032944;28;47623;-94
2022/12/01 06:26:38;;;;;;;;;37.00;33.75;;;;;3.46;84.67;101429.78;5046123;28;45273;-93
2022/12/01 06:29:05;;;;;;;;;35.50;29.75;;;;;5.02;84.56;101692.25;5033118;28;45268;-94
2022/12/01 06:31:34;;;;;;;;;50.25;38.50;;;;;5.01;85.12;101688.78;5013331;28;45478;-95
2022/12/01 06:34:00;;;;;;;;;52.75;41.50;;;;;2.97;84.35;101336.34;5050603;28;45183;-93
2022/12/01 06:36:25;;;;;;;;;48.25;39.00;;;;;2.82;84.32;101336.91;5027437;28;45233;-93
2022/12/01 06:38:52;;;;;;;;;51.00;36.00;;;;;3.25;84.46;101386.66;5027359;28;44675;-93
2022/12/01 06:41:19;;;;;;;;;49.00;37.00;;;;;3.91;84.55;101507.50;5009963;28;45293;-94
2022/12/01 06:43:50;;;;;;;;;46.25;39.50;;;;;4.98;84.73;101697.44;5035439;28;46609;-93
2022/12/01 06:46:16;;;;;;;;;43.00;33.50;;;;;4.02;84.48;101532.16;5046361;28;45258;-93
2022/12/01 06:48:42;;;;;;;;;51.50;35.00;;;;;3.86;84.44;101504.78;5024344;28;45234;-92
2022/12/01 06:51:07;;;;;;;;;46.50;37.25;;;;;4.96;84.74;101701.78;5021827;28;45581;-94
2022/12/01 06:53:34;;;;;;;;;56.75;40.00;;;;;3.88;84.23;101517.91;5033748;28;47016;-93
2022/12/01 06:56:02;;;;;;;;;48.50;37.00;;;;;3.87;84.83;101519.66;5032559;28;45450;-95
2022/12/01 06:58:29;;;;;;;;;42.50;32.00;;;;;2.78;84.49;101340.28;5025510;28;45257;-94
2022/12/01 07:00:57;;;;;;;;;44.25;38.25;;;;;3.13;84.56;101386.38;5030255;28;45286;-93
2022/12/01 07:03:23;;;;;;;;;49.50;35.75;;;;;3.45;84.47;101460.28;5031631;28;45301;-92
2022/12/01 07:05:59;;;;;;;;;49.25;38.25;;;;;2.90;84.04;101357.97;5016524;28;44972;-93
2022/12/01 07:08:26;;;;;;;;;46.75;38.00;;;;;3.90;84.27;101543.25;5001752;28;45546;-93
2022/12/01 07:11:11;;;;;;;;;45.50;35.25;;;;;3.11;83.95;101411.56;5035737;28;45304;-93
2022/12/01 07:20:02;;;;;;;;;41.50;35.00;;;;;4.58;84.56;101664.25;5069242;28;44825;-93
2022/12/01 07:22:31;;;;;;;;;43.25;36.25;;;;;3.17;84.14;101428.28;5040839;28;44826;-93
2022/12/01 07:25:14;;;;;;;;;35.50;28.25;;;;;4.27;84.16;101617.34;5048063;28;45404;-93
2022/12/01 07:27:40;;;;;;;;;51.00;37.75;;;;;3.68;84.05;101515.72;5035229;28;45457;-94
2022/12/01 07:30:07;;;;;;;;;48.75;39.00;;;;;4.06;84.46;101586.34;5039620;28;44723;-93
2022/12/01 07:32:33;;;;;;;;;49.50;37.50;;;;;3.80;84.47;101561.31;5057008;28;44864;-92
2022/12/01 07:35:00;;;;;;;;;44.25;34.75;;;;;4.98;85.23;101741.13;5033306;28;45430;-94
2022/12/01 07:37:30;;;;;;;;;45.50;38.25;;;;;5.01;84.89;101767.38;5034600;28;45265;-93
2022/12/01 07:40:02;;;;;;;;;42.25;37.50;;;;;5.01;84.29;101754.28;5012908;28;45359;-93
2022/12/01 07:42:30;;;;;;;;;53.50;39.25;;;;;4.15;84.71;101601.38;5039870;28;44923;-91
2022/12/01 07:44:55;;;;;;;;;40.75;35.75;;;;;4.61;84.85;101691.38;5032851;28;47277;-91
2022/12/01 07:47:21;;;;;;;;;40.50;33.75;;;;;5.03;85.08;101773.53;5028171;28;45470;-91
2022/12/01 07:49:46;;;;;;;;;44.25;33.75;;;;;3.94;84.44;101595.66;5029558;28;45470;-90
2022/12/01 07:52:12;;;;;;;;;46.00;37.75;;;;;5.04;84.16;101756.97;5024964;28;45451;-90
2022/12/01 07:54:37;;;;;;;;;48.50;37.25;;;;;5.04;84.43;101791.03;5008619;28;46400;-90
2022/12/01 07:57:03;;;;;;;;;34.75;28.75;;;;;4.64;84.07;101716.78;5027306;28;45442;-90
2022/12/01 07:59:28;;;;;;;;;43.50;38.50;;;;;3.44;84.02;101525.59;5032661;28;45481;-91
2022/12/01 08:01:54;;;;;;;;;44.25;35.75;;;;;4.97;84.34;101790.00;5029316;28;45485;-91
2022/12/01 08:04:23;;;;;;;;;49.50;38.00;;;;;4.24;84.08;101659.16;5024957;28;46942;-89
2022/12/01 08:06:49;;;;;;;;;39.50;36.00;;;;;3.16;84.11;101473.53;5033034;28;46155;-93
2022/12/01 08:09:16;;;;;;;;;51.00;40.50;;;;;4.21;84.45;101658.22;5025092;28;45573;-91
2022/12/01 08:11:41;;;;;;;;;35.25;31.50;;;;;3.68;84.27;101573.25;5039866;28;45480;-91
2022/12/01 08:14:07;;;;;;;;;52.25;40.00;;;;;3.28;83.91;101499.09;5044738;28;48468;-90
2022/12/01 08:16:36;;;;;;;;;42.00;33.50;;;;;3.58;83.98;101549.44;5044900;28;45447;-90
2022/12/01 08:19:05;;;;;;;;;46.75;38.25;;;;;5.01;84.20;101803.16;5024540;28;45296;-90
2022/12/01 08:21:31;;;;;;;;;49.75;38.50;;;;;4.60;84.12;101735.88;5047966;28;45405;-91
2022/12/01 08:23:57;;;;;;;;;43.50;36.75;;;;;3.76;83.77;101581.25;5046150;28;45352;-92
2022/12/01 08:26:24;;;;;;;;;45.00;35.50;;;;;3.83;83.65;101598.00;5045305;28;45375;-90
2022/12/01 08:28:50;;;;;;;;;45.50;35.75;;;;;2.95;83.65;101446.88;5055334;28;44781;-91
2022/12/01 08:31:18;;;;;;;;;50.25;38.25;;;;;3.50;83.97;101541.44;5040667;28;45342;-91
2022/12/01 08:33:45;;;;;;;;;35.25;34.00;;;;;3.07;83.63;101473.31;5048322;28;46752;-91
2022/12/01 08:36:14;;;;;;;;;38.75;33.75;;;;;4.62;84.00;101732.44;5039538;28;45459;-90
2022/12/01 08:38:43;;;;;;;;;37.00;34.50;;;;;5.01;83.63;101809.31;5038438;28;45368;-91
2022/12/01 08:41:14;;;;;;;;;39.75;33.00;;;;;3.96;84.04;101639.28;5007683;28;45483;-91
2022/12/01 08:44:08;;;;;;;;;36.25;29.75;;;;;3.34;83.70;101527.97;5029421;28;45658;-92
2022/12/01 08:49:27;;;;;;;;;45.75;38.00;;;;;3.80;83.03;101608.41;5009643;28;45460;-91
2022/12/01 08:52:08;;;;;;;;;39.50;34.50;;;;;4.71;84.41;101744.00;5022493;28;45667;-91
2022/12/01 08:54:37;;;;;;;;;48.75;34.25;;;;;2.87;83.77;101433.63;5039888;28;45114;-90
2022/12/01 08:57:16;;;;;;;;;35.00;32.75;;;;;4.23;84.21;101656.50;5026550;28;45464;-91
2022/12/01 08:59:48;;;;;;;;;37.25;34.50;;;;;3.79;84.03;101597.03;5010571;28;45278;-92
2022/12/01 09:02:29;;;;;;;;;45.00;36.25;;;;;5.07;83.92;101816.41;5024804;28;45525;-92
2022/12/01 09:05:11;;;;;;;;;37.50;33.50;;;;;4.25;83.48;101655.69;5024505;28;45392;-92
2022/12/01 09:07:44;;;;;;;;;30.75;27.75;;;;;3.96;84.60;101605.28;5026996;28;45379;-92
2022/12/01 09:10:22;;;;;;;;;37.50;30.25;;;;;5.18;83.69;101806.16;5024517;28;45353;-91
2022/12/01 09:12:48;;;;;;;;;34.25;28.75;;;;;3.70;83.33;101555.84;5028472;28;45229;-92
2022/12/01 09:15:14;;;;;;;;;39.75;32.50;;;;;5.21;84.18;101796.66;5024615;28;47080;-92
2022/12/01 09:17:39;;;;;;;;;40.75;31.00;;;;;3.67;83.92;101561.00;5021849;28;45336;-91
2022/12/01 09:20:08;;;;;;;;;34.75;31.25;;;;;4.14;83.60;101637.97;5025805;28;45390;-91
2022/12/01 09:22:34;;;;;;;;;39.50;31.25;;;;;3.72;83.55;101563.75;5034931;28;45356;-89
2022/12/01 09:25:13;;;;;;;;;39.75;34.50;;;;;3.64;83.50;101529.56;5028021;28;47172;-91
2022/12/01 09:27:58;;;;;;;;;34.75;31.25;;;;;4.10;83.45;101618.72;5023461;28;45269;-91
2022/12/01 09:30:45;;;;;;;;;34.75;28.50;;;;;5.27;83.37;101806.38;5025138;28;45291;-91
2022/12/01 09:33:44;;;;;;;;;27.75;23.00;;;;;5.28;83.04;101802.88;5019514;28;45443;-91
2022/12/01 09:36:23;;;;;;;;;20.75;19.75;;;;;3.76;83.33;101522.84;5037520;28;46812;-92
2022/12/01 09:38:56;;;;;;;;;43.50;30.00;;;;;3.38;82.80;101453.13;5027026;28;45486;-94
2022/12/01 09:41:50;;;;;;;;;33.75;29.00;;;;;3.47;82.83;101463.81;5036478;28;45268;-95
2022/12/01 09:44:40;;;;;;;;;35.25;31.25;;;;;5.46;82.37;101810.25;5016821;28;44909;-96
2022/12/01 09:47:38;;;;;;;;;35.50;32.25;;;;;3.65;82.42;101505.19;5054321;28;46253;-94
2022/12/01 09:50:20;;;;;;;;;34.75;24.50;;;;;3.78;82.96;101493.28;5036991;28;45743;-93
2022/12/01 09:53:20;;;;;;;;;32.75;31.75;;;;;3.57;83.01;101470.16;5035509;28;45340;-95
2022/12/01 09:55:54;;;;;;;;;45.50;33.75;;;;;5.61;82.44;101809.69;5027515;28;44962;-95
2022/12/01 09:58:35;;;;;;;;;40.25;31.00;;;;;4.96;82.17;101701.78;5036101;28;45495;-94
2022/12/01 10:01:02;;;;;;;;;30.75;30.75;;;;;4.77;82.56;101632.38;5018727;28;45305;-95
2022/12/01 10:03:48;;;;;;;;;33.50;29.75;;;;;5.74;82.39;101797.69;5028012;28;45538;-92
2022/12/01 10:06:35;;;;;;;;;43.25;33.75;;;;;5.19;82.49;101689.97;5022960;28;45333;-93
2022/12/01 10:12:18;;;;;;;;;30.75;26.75;;;;;5.24;82.13;101662.09;5041534;28;45289;-93
2022/12/01 10:14:48;;;;;;;;;39.25;31.50;;;;;4.90;82.44;101591.56;5026681;28;45360;-91
2022/12/01 10:17:27;;;;;;;;;34.50;28.75;;;;;4.29;82.13;101489.13;5026161;28;45277;-90
2022/12/01 10:19:55;;;;;;;;;38.75;32.50;;;;;5.35;82.55;101655.34;5022340;28;48230;-90
2022/12/01 10:22:50;;;;;;;;;33.00;28.00;;;;;5.46;82.49;101685.25;5029093;28;45455;-91
2022/12/01 10:25:22;;;;;;;;;28.50;23.50;;;;;6.24;82.39;101789.91;5038547;28;45310;-92
2022/12/01 10:28:13;;;;;;;;;39.25;29.75;;;;;6.31;82.24;101790.88;5030927;28;45324;-92
2022/12/01 10:31:06;;;;;;;;;28.50;23.25;;;;;6.19;81.79;101753.03;5029045;28;45539;-91
2022/12/01 10:33:58;;;;;;;;;35.75;27.00;;;;;5.38;82.02;101597.72;5025464;28;45332;-91
2022/12/01 10:36:25;;;;;;;;;35.75;28.75;;;;;6.11;81.88;101732.78;5024686;28;45265;-92
2022/12/01 10:38:53;;;;;;;;;39.25;31.00;;;;;6.53;81.83;101771.13;5022668;28;45398;-92
2022/12/01 10:41:21;;;;;;;;;27.75;23.25;;;;;5.10;81.33;101539.56;5026712;28;47080;-91
2022/12/01 10:43:50;;;;;;;;;33.00;29.00;;;;;5.25;81.73;101566.88;5026037;28;45309;-91
2022/12/01 10:46:38;;;;;;;;;28.00;23.25;;;;;6.61;81.85;101781.75;5028273;28;45401;-92
2022/12/01 10:49:15;;;;;;;;;39.00;33.00;;;;;5.58;81.52;101594.56;5027488;28;45260;-91
2022/12/01 10:51:55;;;;;;;;;36.50;31.25;;;;;4.80;81.94;101451.69;5025774;28;45080;-91
2022/12/01 10:54:35;;;;;;;;;34.75;28.25;;;;;5.58;81.25;101590.19;5028620;28;45366;-93
2022/12/01 10:57:17;;;;;;;;;20.75;20.75;;;;;6.73;81.41;101766.16;5036019;28;44684;-92
2022/12/01 11:00:50;;;;;;;;;;;;;;;;;;;;;
2022/12/01 11:04:07;;;;;;;;;31.25;26.75;;;;;6.81;81.11;101756.63;4915227;29;45690;-93
2022/12/01 11:10:50;;;;;;;;;;;;;;;;;;;;;
2022/12/01 11:14:03;;;;;;;;;;;;;;;;;;;;;
2022/12/01 11:20:33;;;;;;;;;39.25;30.50;;;;;5.33;81.48;101479.66;4782840;29;45278;-96
2022/12/01 11:23:20;;;;;;;;;40.50;32.75;;;;;6.91;80.70;101739.28;4784171;29;45496;-95
2022/12/01 11:29:37;;;;;;;;;39.75;30.50;;;;;6.92;80.17;101747.19;4790676;29;44892;-93
2022/12/01 11:35:40;;;;;;;;;41.00;30.50;;;;;6.75;79.37;101735.53;4792655;29;44650;-94
2022/12/01 11:38:45;;;;;;;;;36.75;28.00;;;;;6.81;79.42;101751.38;4793980;29;44900;-93
2022/12/01 12:01:49;;;;;;;;;33.00;27.75;;;;;6.77;79.76;101702.25;4931839;28;44763;-92
2022/12/01 12:04:58;;;;;;;;;35.75;28.00;;;;;6.97;79.39;101728.84;4913416;28;45446;-89
2022/12/01 12:07:53;;;;;;;;;36.00;26.25;;;;;6.74;79.00;101683.81;4927717;28;47012;-92
2022/12/01 12:11:06;;;;;;;;;28.50;25.50;;;;;6.97;79.29;101720.03;4929602;28;45422;-93
2022/12/01 12:13:56;;;;;;;;;37.75;28.75;;;;;6.97;79.55;101712.16;4898150;28;45268;-91
2022/12/01 12:16:51;;;;;;;;;32.75;28.50;;;;;6.99;80.01;101721.84;4913392;28;45458;-92
2022/12/01 12:19:48;;;;;;;;;41.50;35.00;;;;;6.86;78.30;101699.78;4926889;28;46986;-91
2022/12/01 12:23:10;;;;;;;;;35.75;29.00;;;;;6.93;78.92;101722.63;4948486;28;45429;-91
2022/12/01 12:29:38;;;;;;;;;34.75;31.00;;;;;6.88;79.37;101719.06;5046158;28;45302;-93
2022/12/01 12:32:05;;;;;;;;;24.50;23.75;;;;;6.20;79.41;101607.78;5029052;28;45279;-91
2022/12/01 12:34:52;;;;;;;;;28.25;26.25;;;;;6.87;80.13;101721.69;5028196;28;44839;-91
2022/12/01 12:37:36;;;;;;;;;34.25;28.25;;;;;6.83;79.93;101711.97;5020515;28;45344;-91
2022/12/01 12:40:17;;;;;;;;;42.25;32.75;;;;;6.44;79.15;101637.91;5029936;28;45245;-92
2022/12/01 12:42:51;;;;;;;;;31.50;28.50;;;;;5.62;78.67;101507.19;5021720;28;48354;-90
2022/12/01 12:45:50;;;;;;;;;42.75;32.50;;;;;6.32;78.25;101643.00;5021507;28;45504;-91
2022/12/01 12:48:52;;;;;;;;;28.00;26.00;;;;;6.16;78.72;101621.72;5025228;28;45483;-93
2022/12/01 12:51:49;;;;;;;;;27.00;23.00;;;;;6.58;79.95;101719.53;4917264;28;45479;-93
2022/12/01 12:54:29;;;;;;;;;33.50;28.25;;;;;6.26;79.45;101653.41;4929714;28;47215;-88
2022/12/01 12:57:02;;;;;;;;;28.00;23.50;;;;;4.87;79.69;101430.84;4944232;28;45543;-88
2022/12/01 12:59:35;;;;;;;;;33.50;25.75;;;;;6.21;79.16;101662.09;4941724;28;45382;-91
2022/12/01 13:02:17;;;;;;;;;34.25;29.50;;;;;5.88;79.08;101604.66;4940009;28;45633;-90
2022/12/01 13:05:31;;;;;;;;;35.75;32.25;;;;;5.85;79.46;101570.50;4924282;28;47555;-90
2022/12/01 13:08:04;;;;;;;;;22.00;17.50;;;;;4.65;79.15;101385.03;4935255;28;45458;-90